Time;durP1;ratioP1;P1;durP2;ratioP2;P2;SDS_P1;SDS_P2;PMS_P1;PMS_P2;Temp;Humidity;BMP_temperature;BMP_pressure;BME280_temperature;BME280_humidity;BME280_pressure;Samples;Min_cycle;Max_cycle;Signal;HPM_P1;HPM_P2
2023/07/17 00:00:25;;;;;;;;;;;18.80;99.90;;;;;;8358479;28;19929;-72
2023/07/17 00:04:26;;;;;;;;;;;18.70;99.90;;;;;;8352404;28;20372;-72
2023/07/17 00:08:28;;;;;;;;;;;18.70;99.90;;;;;;8364269;28;20375;-72
2023/07/17 00:12:30;;;;;;;;;;;18.70;99.90;;;;;;8360000;28;19925;-71
2023/07/17 00:16:32;;;;;;;;;;;18.70;99.90;;;;;;8359181;28;19933;-71
2023/07/17 00:20:33;;;;;;;;;;;18.70;99.90;;;;;;8370394;28;20401;-71
2023/07/17 00:24:35;;;;;;;;;;;18.70;99.90;;;;;;8350323;28;19933;-71
2023/07/17 00:28:37;;;;;;;;;;;18.60;99.90;;;;;;8365816;28;19939;-72
2023/07/17 00:32:38;;;;;;;;;;;18.60;99.90;;;;;;8357907;28;20399;-71
2023/07/17 00:36:40;;;;;;;;;;;18.60;99.90;;;;;;8344280;28;20261;-71
2023/07/17 00:40:42;;;;;;;;;;;18.60;99.90;;;;;;8349253;28;19977;-71
2023/07/17 00:44:44;;;;;;;;;;;18.60;99.90;;;;;;8351441;28;19931;-71
2023/07/17 00:48:46;;;;;;;;;;;18.50;99.90;;;;;;8376821;28;19993;-72
2023/07/17 00:52:48;;;;;;;;;;;18.40;99.90;;;;;;8352358;28;19929;-72
2023/07/17 00:56:50;;;;;;;;;;;18.30;99.90;;;;;;8368620;28;19928;-72
2023/07/17 01:00:51;;;;;;;;;;;18.30;99.90;;;;;;8354252;28;20157;-72
2023/07/17 01:04:53;;;;;;;;;;;18.30;99.90;;;;;;8356099;28;19929;-72
2023/07/17 01:08:55;;;;;;;;;;;18.30;99.90;;;;;;8359941;28;19946;-72
2023/07/17 01:12:56;;;;;;;;;;;18.20;99.90;;;;;;8343678;28;19933;-71
2023/07/17 01:16:58;;;;;;;;;;;18.10;99.90;;;;;;8366100;28;19931;-72
2023/07/17 01:21:00;;;;;;;;;;;18.10;99.90;;;;;;8359253;28;20019;-72
2023/07/17 01:25:03;;;;;;;;;;;18.00;99.90;;;;;;8360081;28;19968;-71
2023/07/17 01:29:05;;;;;;;;;;;17.90;99.90;;;;;;8358898;28;20674;-71
2023/07/17 01:33:06;;;;;;;;;;;17.90;99.90;;;;;;8344315;28;20363;-71
2023/07/17 01:37:08;;;;;;;;;;;17.90;99.90;;;;;;8357977;28;19925;-71
2023/07/17 01:41:10;;;;;;;;;;;17.80;99.90;;;;;;8371362;28;19925;-72
2023/07/17 01:45:11;;;;;;;;;;;17.80;99.90;;;;;;8349605;28;20386;-71
2023/07/17 01:49:13;;;;;;;;;;;17.70;99.90;;;;;;8352879;28;19990;-71
2023/07/17 01:53:18;;;;;;;;;;;17.70;99.90;;;;;;8381825;28;19928;-71
2023/07/17 01:57:20;;;;;;;;;;;17.70;99.90;;;;;;8343906;28;19975;-71
2023/07/17 02:01:22;;;;;;;;;;;17.70;99.90;;;;;;8364327;28;19925;-71
2023/07/17 02:05:23;;;;;;;;;;;17.60;99.90;;;;;;8374692;28;19970;-71
2023/07/17 02:09:25;;;;;;;;;;;17.60;99.90;;;;;;8373193;28;19960;-71
2023/07/17 02:13:27;;;;;;;;;;;17.50;99.90;;;;;;8384774;28;19928;-71
2023/07/17 02:17:28;;;;;;;;;;;17.40;99.90;;;;;;8376571;28;19928;-71
2023/07/17 02:21:30;;;;;;;;;;;17.40;99.90;;;;;;8382279;28;19949;-71
2023/07/17 02:25:32;;;;;;;;;;;17.20;99.90;;;;;;8364657;28;19925;-71
2023/07/17 02:29:33;;;;;;;;;;;17.20;99.90;;;;;;8355791;28;19928;-71
2023/07/17 02:33:35;;;;;;;;;;;17.10;99.90;;;;;;8362342;28;19939;-71
2023/07/17 02:37:37;;;;;;;;;;;17.10;99.90;;;;;;8359311;28;19928;-70
2023/07/17 02:41:38;;;;;;;;;;;17.10;99.90;;;;;;8375527;28;20406;-71
2023/07/17 02:45:40;;;;;;;;;;;17.00;99.90;;;;;;8355282;28;19974;-71
2023/07/17 02:49:42;;;;;;;;;;;17.10;99.90;;;;;;8364963;28;19933;-71
2023/07/17 02:53:43;;;;;;;;;;;17.00;99.90;;;;;;8399405;28;20375;-71
2023/07/17 02:57:45;;;;;;;;;;;16.90;99.90;;;;;;8353417;28;19932;-71
2023/07/17 03:01:48;;;;;;;;;;;16.90;99.90;;;;;;8348599;28;20525;-71
2023/07/17 03:05:49;;;;;;;;;;;16.80;99.90;;;;;;8353103;28;19932;-71
2023/07/17 03:09:51;;;;;;;;;;;16.80;99.90;;;;;;8371639;28;19997;-71
2023/07/17 03:13:53;;;;;;;;;;;16.70;99.90;;;;;;8355364;28;20335;-71
2023/07/17 03:17:54;;;;;;;;;;;16.70;99.90;;;;;;8356421;28;20335;-71
2023/07/17 03:21:56;;;;;;;;;;;16.60;99.90;;;;;;8368930;28;19925;-71
2023/07/17 03:25:58;;;;;;;;;;;16.60;99.90;;;;;;8335938;28;19932;-71
2023/07/17 03:29:59;;;;;;;;;;;16.60;99.90;;;;;;8339991;28;19925;-70
2023/07/17 03:39:11;;;;;;;;;;;16.60;99.90;;;;;;8357028;28;20008;-71
2023/07/17 03:43:13;;;;;;;;;;;16.60;99.90;;;;;;8366867;28;19929;-71
2023/07/17 03:47:14;;;;;;;;;;;16.50;99.90;;;;;;8373150;28;20380;-71
2023/07/17 03:51:16;;;;;;;;;;;16.60;99.90;;;;;;8385160;28;19970;-71
2023/07/17 03:55:18;;;;;;;;;;;16.50;99.90;;;;;;8346944;28;19960;-71
2023/07/17 03:59:24;;;;;;;;;;;16.40;99.90;;;;;;8355347;28;20312;-71
2023/07/17 04:03:25;;;;;;;;;;;16.40;99.90;;;;;;8363925;28;20333;-70
2023/07/17 04:07:27;;;;;;;;;;;16.30;99.90;;;;;;8360000;28;19968;-71
2023/07/17 04:11:29;;;;;;;;;;;16.30;99.90;;;;;;8355222;28;20014;-70
2023/07/17 04:15:31;;;;;;;;;;;16.30;99.90;;;;;;8343058;28;20117;-71
2023/07/17 04:19:32;;;;;;;;;;;16.30;99.90;;;;;;8370696;28;20375;-71
2023/07/17 04:23:34;;;;;;;;;;;16.30;99.90;;;;;;8347618;28;19972;-70
2023/07/17 04:27:36;;;;;;;;;;;16.20;99.90;;;;;;8355273;28;19932;-70
2023/07/17 04:31:38;;;;;;;;;;;16.30;99.90;;;;;;8346686;28;19936;-71
2023/07/17 04:35:40;;;;;;;;;;;16.40;99.90;;;;;;8353913;28;19932;-70
2023/07/17 04:39:41;;;;;;;;;;;16.30;99.90;;;;;;8354156;28;19939;-70
2023/07/17 04:43:43;;;;;;;;;;;16.30;99.90;;;;;;8354200;28;19932;-70
2023/07/17 04:47:44;;;;;;;;;;;16.30;99.90;;;;;;8342783;28;19933;-70
2023/07/17 04:51:46;;;;;;;;;;;16.20;99.90;;;;;;8357115;28;19939;-70
2023/07/17 04:55:48;;;;;;;;;;;16.30;99.90;;;;;;8371909;28;19936;-70
2023/07/17 04:59:50;;;;;;;;;;;16.30;99.90;;;;;;8368153;28;20482;-70
2023/07/17 05:03:51;;;;;;;;;;;16.30;99.90;;;;;;8377976;28;19924;-70
2023/07/17 05:07:53;;;;;;;;;;;16.40;99.90;;;;;;8358010;28;19979;-70
2023/07/17 05:11:55;;;;;;;;;;;16.40;99.90;;;;;;8375438;28;19951;-70
2023/07/17 05:15:57;;;;;;;;;;;16.40;99.90;;;;;;8363744;28;19931;-70
2023/07/17 05:19:58;;;;;;;;;;;16.50;99.90;;;;;;8390988;28;19932;-70
2023/07/17 05:24:00;;;;;;;;;;;16.50;99.90;;;;;;8372433;28;19928;-70
2023/07/17 05:28:03;;;;;;;;;;;16.50;99.90;;;;;;8362599;28;19931;-70
2023/07/17 05:32:05;;;;;;;;;;;16.50;99.90;;;;;;8376772;28;19977;-70
2023/07/17 05:36:07;;;;;;;;;;;16.50;99.90;;;;;;8376515;28;19924;-71
2023/07/17 05:40:09;;;;;;;;;;;16.50;99.90;;;;;;8363420;28;19929;-71
2023/07/17 05:44:12;;;;;;;;;;;16.50;99.90;;;;;;8389148;28;19928;-71
2023/07/17 05:48:14;;;;;;;;;;;16.60;99.90;;;;;;8367559;28;19925;-71
2023/07/17 05:52:15;;;;;;;;;;;16.60;99.90;;;;;;8373986;28;19970;-70
2023/07/17 05:56:17;;;;;;;;;;;16.60;99.90;;;;;;8382111;28;19931;-70
2023/07/17 06:00:19;;;;;;;;;;;16.50;99.90;;;;;;8375276;28;19931;-71
2023/07/17 06:04:21;;;;;;;;;;;16.50;99.90;;;;;;8369924;28;19976;-71
2023/07/17 06:08:22;;;;;;;;;;;16.60;99.90;;;;;;8383062;28;19975;-71
2023/07/17 06:12:24;;;;;;;;;;;16.70;99.90;;;;;;8388331;28;19925;-70
2023/07/17 06:16:25;;;;;;;;;;;16.80;99.90;;;;;;8372335;28;19925;-71
2023/07/17 06:20:27;;;;;;;;;;;16.80;99.90;;;;;;8372903;28;19925;-70
2023/07/17 06:24:29;;;;;;;;;;;16.70;99.90;;;;;;8367295;28;19924;-70
2023/07/17 06:28:31;;;;;;;;;;;16.70;99.90;;;;;;8378616;28;19925;-70
2023/07/17 06:32:32;;;;;;;;;;;16.80;99.90;;;;;;8371594;28;19932;-71
2023/07/17 06:36:34;;;;;;;;;;;16.90;99.90;;;;;;8373346;28;20016;-71
2023/07/17 06:40:37;;;;;;;;;;;16.90;99.90;;;;;;8373495;28;19932;-71
2023/07/17 06:44:39;;;;;;;;;;;16.90;99.90;;;;;;8334676;28;19928;-70
2023/07/17 06:48:41;;;;;;;;;;;17.00;99.90;;;;;;8352727;28;19929;-71
2023/07/17 06:52:43;;;;;;;;;;;17.10;99.90;;;;;;8354218;28;19924;-71
2023/07/17 06:56:45;;;;;;;;;;;17.20;99.90;;;;;;8361408;28;19925;-70
2023/07/17 07:00:47;;;;;;;;;;;17.30;99.90;;;;;;8380905;28;20291;-70
2023/07/17 07:04:49;;;;;;;;;;;17.40;99.90;;;;;;8374505;28;20490;-71
2023/07/17 07:08:50;;;;;;;;;;;17.50;99.90;;;;;;8369945;28;19932;-70
2023/07/17 07:12:52;;;;;;;;;;;17.60;99.90;;;;;;8371448;28;19932;-71
2023/07/17 07:16:54;;;;;;;;;;;17.70;99.90;;;;;;8370391;28;19925;-71
2023/07/17 07:20:56;;;;;;;;;;;17.70;99.90;;;;;;8384047;28;19932;-70
2023/07/17 07:24:57;;;;;;;;;;;17.70;99.90;;;;;;8359396;28;20434;-71
2023/07/17 07:28:59;;;;;;;;;;;17.70;99.90;;;;;;8349436;28;20387;-71
2023/07/17 07:33:00;;;;;;;;;;;17.80;99.90;;;;;;8368026;28;19933;-71
2023/07/17 07:37:02;;;;;;;;;;;17.80;99.90;;;;;;8371639;28;19932;-71
2023/07/17 07:41:04;;;;;;;;;;;17.90;99.90;;;;;;8352936;28;19925;-71
2023/07/17 07:45:06;;;;;;;;;;;17.90;99.90;;;;;;8353097;28;19975;-71
2023/07/17 07:49:08;;;;;;;;;;;18.00;99.90;;;;;;8363908;28;19928;-71
2023/07/17 07:53:09;;;;;;;;;;;18.00;99.90;;;;;;8364161;28;19929;-71
2023/07/17 07:57:11;;;;;;;;;;;18.10;99.90;;;;;;8377492;28;20268;-70
2023/07/17 08:01:13;;;;;;;;;;;18.10;99.90;;;;;;8357742;28;20343;-71
2023/07/17 08:05:14;;;;;;;;;;;18.20;99.90;;;;;;8368550;28;20217;-71
2023/07/17 08:09:16;;;;;;;;;;;18.20;99.90;;;;;;8331670;28;20327;-71
2023/07/17 08:13:18;;;;;;;;;;;18.20;99.90;;;;;;8328455;28;20343;-70
2023/07/17 08:17:20;;;;;;;;;;;18.20;99.90;;;;;;8331754;28;19933;-71
2023/07/17 08:21:21;;;;;;;;;;;18.20;99.90;;;;;;8324683;28;20392;-72
2023/07/17 08:25:23;;;;;;;;;;;18.30;99.90;;;;;;8325684;28;20844;-71
2023/07/17 08:29:25;;;;;;;;;;;18.40;99.90;;;;;;8330766;28;19931;-71
2023/07/17 08:33:26;;;;;;;;;;;18.50;99.90;;;;;;8329995;28;19925;-70
2023/07/17 08:37:28;;;;;;;;;;;18.60;99.90;;;;;;8329413;28;20392;-72
2023/07/17 08:41:30;;;;;;;;;;;18.70;99.90;;;;;;8325059;28;19971;-70
2023/07/17 08:45:33;;;;;;;;;;;18.80;99.90;;;;;;8326946;28;19925;-70
2023/07/17 08:49:35;;;;;;;;;;;18.90;99.90;;;;;;8325386;28;19937;-70
2023/07/17 08:53:38;;;;;;;;;;;19.10;99.90;;;;;;8328409;28;19936;-71
2023/07/17 08:57:41;;;;;;;;;;;19.20;99.90;;;;;;8327057;28;20338;-71
2023/07/17 09:01:44;;;;;;;;;;;19.20;99.90;;;;;;8336838;28;20345;-70
2023/07/17 09:05:45;;;;;;;;;;;19.30;99.90;;;;;;8345293;28;19925;-71
2023/07/17 09:10:07;;;;;;;;;;;19.30;99.90;;;;;;8320557;28;19925;-71
2023/07/17 09:14:09;;;;;;;;;;;19.10;99.90;;;;;;8329406;28;19933;-72
2023/07/17 09:18:10;;;;;;;;;;;18.90;99.90;;;;;;8330469;28;19974;-72
2023/07/17 09:22:14;;;;;;;;;;;18.80;99.90;;;;;;8340453;28;20307;-71
2023/07/17 09:26:20;;;;;;;;;;;18.70;99.90;;;;;;8326971;28;19925;-71
2023/07/17 09:30:46;;;;;;;;;;;18.60;99.90;;;;;;8328530;28;19929;-71
2023/07/17 09:34:52;;;;;;;;;;;18.50;99.90;;;;;;8336725;28;19929;-71
2023/07/17 09:38:57;;;;;;;;;;;18.40;99.90;;;;;;8331089;28;20064;-72
2023/07/17 09:43:04;;;;;;;;;;;18.30;99.90;;;;;;8329620;28;19967;-71
2023/07/17 09:47:06;;;;;;;;;;;18.30;99.90;;;;;;8341779;28;20000;-70
2023/07/17 09:51:09;;;;;;;;;;;18.30;99.90;;;;;;8336312;28;20370;-71
2023/07/17 09:55:11;;;;;;;;;;;18.20;99.90;;;;;;8320009;28;19925;-71
2023/07/17 09:59:14;;;;;;;;;;;18.00;99.90;;;;;;8326214;28;19932;-71
2023/07/17 10:03:17;;;;;;;;;;;17.80;99.90;;;;;;8323656;28;19928;-70
2023/07/17 10:07:19;;;;;;;;;;;17.50;99.90;;;;;;8330557;28;20061;-71
2023/07/17 10:11:21;;;;;;;;;;;17.30;99.90;;;;;;8353444;28;19947;-70
2023/07/17 10:15:23;;;;;;;;;;;17.20;99.90;;;;;;8350709;28;19977;-71
2023/07/17 10:19:26;;;;;;;;;;;17.20;99.90;;;;;;8334672;28;19925;-71
2023/07/17 10:23:29;;;;;;;;;;;17.20;99.90;;;;;;8333527;28;19972;-71
2023/07/17 10:27:38;;;;;;;;;;;17.20;99.90;;;;;;8330542;28;19925;-72
2023/07/17 10:31:49;;;;;;;;;;;17.30;99.90;;;;;;8351248;28;19925;-71
2023/07/17 10:35:51;;;;;;;;;;;17.40;99.90;;;;;;8347949;28;19925;-71
2023/07/17 10:40:03;;;;;;;;;;;17.40;99.90;;;;;;8326819;28;19971;-70
2023/07/17 10:44:08;;;;;;;;;;;17.50;99.90;;;;;;8329342;28;20296;-70
2023/07/17 10:48:19;;;;;;;;;;;17.40;99.90;;;;;;8330005;28;19936;-71
2023/07/17 10:52:20;;;;;;;;;;;17.40;99.90;;;;;;8346989;28;20025;-71
2023/07/17 10:56:22;;;;;;;;;;;17.50;99.90;;;;;;8332426;28;19996;-71
2023/07/17 11:00:24;;;;;;;;;;;17.50;99.90;;;;;;8344493;28;19932;-71
2023/07/17 11:04:26;;;;;;;;;;;17.40;99.90;;;;;;8324942;28;19933;-72
2023/07/17 11:08:27;;;;;;;;;;;17.20;99.90;;;;;;8350340;28;19924;-72
2023/07/17 11:12:29;;;;;;;;;;;17.20;99.90;;;;;;8329065;28;19937;-71
2023/07/17 11:16:32;;;;;;;;;;;17.20;99.90;;;;;;8335626;28;20296;-71
2023/07/17 11:20:34;;;;;;;;;;;17.30;99.90;;;;;;8330139;28;20291;-71
2023/07/17 11:24:35;;;;;;;;;;;17.40;99.90;;;;;;8329789;28;20601;-71
2023/07/17 11:28:38;;;;;;;;;;;17.50;99.90;;;;;;8334216;28;20450;-71
2023/07/17 11:32:39;;;;;;;;;;;17.70;99.90;;;;;;8328863;28;19976;-72
2023/07/17 11:36:42;;;;;;;;;;;17.80;99.90;;;;;;8333409;28;19926;-72
2023/07/17 11:40:54;;;;;;;;;;;18.00;99.90;;;;;;8333239;28;20064;-71
2023/07/17 11:44:57;;;;;;;;;;;18.00;99.90;;;;;;8330974;28;20546;-72
2023/07/17 11:48:59;;;;;;;;;;;18.10;99.90;;;;;;8333447;28;19925;-72
2023/07/17 11:53:08;;;;;;;;;;;18.10;99.90;;;;;;8329177;28;19979;-72
2023/07/17 11:57:10;;;;;;;;;;;18.20;99.90;;;;;;8330964;28;19933;-71
2023/07/17 12:01:11;;;;;;;;;;;18.30;99.90;;;;;;8328695;28;19933;-71
2023/07/17 12:05:13;;;;;;;;;;;18.30;99.90;;;;;;8330880;28;20347;-71
2023/07/17 12:09:15;;;;;;;;;;;18.40;99.90;;;;;;8329114;28;19925;-72
2023/07/17 12:13:17;;;;;;;;;;;18.60;99.90;;;;;;8325681;28;20438;-71
2023/07/17 12:17:18;;;;;;;;;;;18.70;99.90;;;;;;8329635;28;19925;-70
2023/07/17 12:21:20;;;;;;;;;;;18.70;99.90;;;;;;8343408;28;20315;-71
2023/07/17 12:25:29;;;;;;;;;;;18.50;99.90;;;;;;8330351;28;19955;-70
2023/07/17 12:29:31;;;;;;;;;;;18.30;99.90;;;;;;8343618;28;20380;-71
2023/07/17 12:33:32;;;;;;;;;;;17.80;99.90;;;;;;8323029;28;19983;-70
2023/07/17 12:37:34;;;;;;;;;;;17.40;99.90;;;;;;8324584;28;20017;-71
2023/07/17 12:41:36;;;;;;;;;;;17.20;99.90;;;;;;8328168;28;19944;-71
2023/07/17 12:45:38;;;;;;;;;;;17.10;99.90;;;;;;8328793;28;20336;-71
2023/07/17 12:49:39;;;;;;;;;;;17.10;99.90;;;;;;8339958;28;20373;-71
2023/07/17 12:53:41;;;;;;;;;;;17.10;99.90;;;;;;8343410;28;20388;-71
2023/07/17 12:57:43;;;;;;;;;;;17.10;99.90;;;;;;8328168;28;19925;-71
2023/07/17 13:01:46;;;;;;;;;;;17.20;99.90;;;;;;8328616;28;19928;-71
2023/07/17 13:05:48;;;;;;;;;;;17.40;99.90;;;;;;8329306;28;19971;-70
2023/07/17 13:09:50;;;;;;;;;;;17.60;99.90;;;;;;8344559;28;19955;-71
2023/07/17 13:24:00;;;;;;;;;;;18.30;99.90;;;;;;8328230;28;20079;-70
2023/07/17 13:28:01;;;;;;;;;;;18.30;99.90;;;;;;8324535;28;19925;-70
2023/07/17 13:37:12;;;;;;;;;;;18.40;99.90;;;;;;8322788;28;19919;-70
2023/07/17 13:41:33;;;;;;;;;;;18.50;99.90;;;;;;8323504;28;19925;-71
2023/07/17 13:50:38;;;;;;;;;;;18.70;99.90;;;;;;8333309;28;19967;-70
2023/07/17 13:54:40;;;;;;;;;;;18.80;99.90;;;;;;8349278;28;19980;-71
2023/07/17 13:58:42;;;;;;;;;;;19.00;99.90;;;;;;8332276;28;20202;-70
2023/07/17 14:02:44;;;;;;;;;;;19.10;99.90;;;;;;8330179;28;19929;-71
2023/07/17 14:06:46;;;;;;;;;;;19.10;99.90;;;;;;8331287;28;20302;-71
2023/07/17 14:10:48;;;;;;;;;;;19.10;99.90;;;;;;8326639;28;19964;-71
2023/07/17 14:14:50;;;;;;;;;;;19.10;99.90;;;;;;8328121;28;19932;-71
2023/07/17 14:18:52;;;;;;;;;;;19.00;99.90;;;;;;8329833;28;19925;-70
2023/07/17 14:22:54;;;;;;;;;;;19.00;99.90;;;;;;8325451;28;19929;-71
2023/07/17 14:26:55;;;;;;;;;;;18.90;99.90;;;;;;8335281;28;19963;-71
2023/07/17 14:30:57;;;;;;;;;;;19.00;99.90;;;;;;8331923;28;19933;-71
2023/07/17 14:34:59;;;;;;;;;;;19.00;99.90;;;;;;8331155;28;19933;-71
2023/07/17 14:39:01;;;;;;;;;;;19.00;99.90;;;;;;8329152;28;19935;-71
2023/07/17 14:43:04;;;;;;;;;;;18.90;99.90;;;;;;8344586;28;20304;-72
2023/07/17 14:47:06;;;;;;;;;;;18.90;99.90;;;;;;8330703;28;19933;-71
2023/07/17 14:51:09;;;;;;;;;;;18.80;99.90;;;;;;8326661;28;19929;-72
2023/07/17 14:55:11;;;;;;;;;;;18.80;99.90;;;;;;8327078;28;19929;-71
2023/07/17 14:59:13;;;;;;;;;;;18.90;99.90;;;;;;8327157;28;19940;-71
2023/07/17 15:03:15;;;;;;;;;;;19.10;99.90;;;;;;8332417;28;19929;-71
2023/07/17 15:07:16;;;;;;;;;;;19.30;99.90;;;;;;8348571;28;19925;-71
2023/07/17 15:11:18;;;;;;;;;;;19.40;99.90;;;;;;8326583;28;19924;-70
2023/07/17 15:15:20;;;;;;;;;;;19.40;99.90;;;;;;8326939;28;19995;-71
2023/07/17 15:19:22;;;;;;;;;;;19.40;99.90;;;;;;8329025;28;19925;-72
2023/07/17 15:23:24;;;;;;;;;;;19.50;99.90;;;;;;8327878;28;19952;-70
2023/07/17 15:27:25;;;;;;;;;;;19.40;99.90;;;;;;8346954;28;19971;-71
2023/07/17 15:36:43;;;;;;;;;;;19.30;99.90;;;;;;8323231;28;19971;-71
2023/07/17 15:40:44;;;;;;;;;;;19.40;99.90;;;;;;8298982;28;19926;-71
2023/07/17 15:44:46;;;;;;;;;;;19.50;99.90;;;;;;8311783;28;19945;-71
2023/07/17 15:48:48;;;;;;;;;;;19.50;99.90;;;;;;8294209;28;19930;-72
2023/07/17 15:52:49;;;;;;;;;;;19.80;99.90;;;;;;8307004;28;19950;-71
2023/07/17 15:56:51;;;;;;;;;;;20.10;99.90;;;;;;8288930;28;20278;-71
2023/07/17 16:00:53;;;;;;;;;;;20.40;99.90;;;;;;8304855;28;19991;-71
2023/07/17 16:04:54;;;;;;;;;;;20.70;99.90;;;;;;8308801;28;19933;-73
2023/07/17 16:08:56;;;;;;;;;;;20.80;99.90;;;;;;8291588;28;19932;-70
2023/07/17 16:12:57;;;;;;;;;;;21.10;99.90;;;;;;8290858;28;19926;-72
2023/07/17 16:16:59;;;;;;;;;;;21.40;99.90;;;;;;8289816;28;19925;-71
2023/07/17 16:21:01;;;;;;;;;;;21.70;99.90;;;;;;8292080;28;19968;-71
2023/07/17 16:25:03;;;;;;;;;;;22.00;99.90;;;;;;8274859;28;20293;-71
2023/07/17 16:29:05;;;;;;;;;;;22.10;99.90;;;;;;8294048;28;19929;-72
2023/07/17 16:33:06;;;;;;;;;;;22.00;99.90;;;;;;8289339;28;19929;-71
2023/07/17 16:37:08;;;;;;;;;;;21.90;99.90;;;;;;8292320;28;19943;-71
2023/07/17 16:41:10;;;;;;;;;;;22.00;99.90;;;;;;8337610;28;19925;-71
2023/07/17 16:45:12;;;;;;;;;;;22.20;99.90;;;;;;8337429;28;19926;-71
2023/07/17 16:54:17;;;;;;;;;;;22.40;99.90;;;;;;8323643;28;20400;-71
2023/07/17 16:58:19;;;;;;;;;;;22.50;99.90;;;;;;8322888;28;19925;-71
2023/07/17 17:02:21;;;;;;;;;;;22.40;99.90;;;;;;8326016;28;19993;-71
2023/07/17 17:06:22;;;;;;;;;;;22.20;99.90;;;;;;8323557;28;19936;-71
2023/07/17 17:10:24;;;;;;;;;;;21.90;99.90;;;;;;8324175;28;19926;-71
2023/07/17 17:14:26;;;;;;;;;;;21.80;99.90;;;;;;8326112;28;19929;-71
2023/07/17 17:18:29;;;;;;;;;;;21.50;99.90;;;;;;8325154;28;19925;-72
2023/07/17 17:22:30;;;;;;;;;;;21.40;99.90;;;;;;8329995;28;19925;-72
2023/07/17 17:26:32;;;;;;;;;;;21.30;99.90;;;;;;8330005;28;20406;-71
2023/07/17 17:30:34;;;;;;;;;;;21.20;99.90;;;;;;8331153;28;19925;-71
2023/07/17 17:34:37;;;;;;;;;;;21.10;99.90;;;;;;8346530;28;19925;-72
2023/07/17 17:38:39;;;;;;;;;;;21.10;99.90;;;;;;8330054;28;19928;-72
2023/07/17 17:42:41;;;;;;;;;;;21.00;99.90;;;;;;8331226;28;19932;-71
2023/07/17 17:46:43;;;;;;;;;;;20.90;99.90;;;;;;8329440;28;20444;-71
2023/07/17 17:50:44;;;;;;;;;;;20.70;99.90;;;;;;8348464;28;19925;-72
2023/07/17 17:54:46;;;;;;;;;;;20.70;99.90;;;;;;8329486;28;19925;-72
2023/07/17 17:58:48;;;;;;;;;;;20.70;99.90;;;;;;8329493;28;19925;-72
2023/07/17 18:02:49;;;;;;;;;;;20.70;99.90;;;;;;8327332;28;19939;-72
2023/07/17 18:06:51;;;;;;;;;;;20.70;99.90;;;;;;8333540;28;19925;-72
2023/07/17 18:10:53;;;;;;;;;;;20.70;99.90;;;;;;8346301;28;19944;-72
2023/07/17 18:14:54;;;;;;;;;;;20.70;99.90;;;;;;8331028;28;20019;-72
2023/07/17 18:18:56;;;;;;;;;;;20.70;99.90;;;;;;8327361;28;20383;-72
2023/07/17 18:22:58;;;;;;;;;;;20.60;99.90;;;;;;8326789;28;19983;-72
2023/07/17 18:27:05;;;;;;;;;;;20.60;99.90;;;;;;8331798;28;19948;-72
2023/07/17 18:31:08;;;;;;;;;;;20.50;99.90;;;;;;8332502;28;19924;-72
2023/07/17 18:35:09;;;;;;;;;;;20.40;99.90;;;;;;8343120;28;20812;-71
2023/07/17 18:39:11;;;;;;;;;;;20.40;99.90;;;;;;8329325;28;19931;-71
2023/07/17 18:43:15;;;;;;;;;;;20.30;99.90;;;;;;8332484;28;20325;-71
2023/07/17 18:47:17;;;;;;;;;;;20.20;99.90;;;;;;8329196;28;19928;-71
2023/07/17 18:51:18;;;;;;;;;;;20.20;99.90;;;;;;8330501;28;20391;-71
2023/07/17 18:55:20;;;;;;;;;;;20.10;99.90;;;;;;8330766;28;19933;-71
2023/07/17 18:59:22;;;;;;;;;;;20.10;99.90;;;;;;8326344;28;19925;-72
2023/07/17 19:03:24;;;;;;;;;;;20.00;99.90;;;;;;8351546;28;20032;-72
2023/07/17 19:07:25;;;;;;;;;;;20.00;99.90;;;;;;8326776;28;20430;-72
2023/07/17 19:11:27;;;;;;;;;;;20.00;99.90;;;;;;8326620;28;20292;-71
2023/07/17 19:15:28;;;;;;;;;;;19.90;99.90;;;;;;8330214;28;19925;-72
2023/07/17 19:19:30;;;;;;;;;;;19.90;99.90;;;;;;8328366;28;19925;-72
2023/07/17 19:23:34;;;;;;;;;;;19.90;99.90;;;;;;8334030;28;20382;-72
2023/07/17 19:27:36;;;;;;;;;;;19.90;99.90;;;;;;8347063;28;19924;-72
2023/07/17 19:31:38;;;;;;;;;;;19.80;99.90;;;;;;8331217;28;19924;-72
2023/07/17 19:35:39;;;;;;;;;;;19.80;99.90;;;;;;8328892;28;19935;-72
2023/07/17 19:39:41;;;;;;;;;;;19.70;99.90;;;;;;8345249;28;19933;-72
2023/07/17 19:43:43;;;;;;;;;;;19.70;99.90;;;;;;8328683;28;19933;-72
2023/07/17 19:47:45;;;;;;;;;;;19.60;99.90;;;;;;8332719;28;20423;-72
2023/07/17 19:51:47;;;;;;;;;;;19.40;99.90;;;;;;8335463;28;19990;-72
2023/07/17 19:55:49;;;;;;;;;;;19.40;99.90;;;;;;8331485;28;20567;-72
2023/07/17 19:59:51;;;;;;;;;;;19.20;99.90;;;;;;8340180;28;19925;-72
2023/07/17 20:03:52;;;;;;;;;;;19.10;99.90;;;;;;8326851;28;19987;-72
2023/07/17 20:07:54;;;;;;;;;;;19.00;99.90;;;;;;8324086;28;19933;-71
2023/07/17 20:11:56;;;;;;;;;;;18.80;99.90;;;;;;8328031;28;20365;-71
2023/07/17 20:15:58;;;;;;;;;;;18.70;99.90;;;;;;8345880;28;19933;-72
2023/07/17 20:19:59;;;;;;;;;;;18.60;99.90;;;;;;8331172;28;19990;-72
2023/07/17 20:24:01;;;;;;;;;;;18.50;99.90;;;;;;8339381;28;19929;-71
2023/07/17 20:28:03;;;;;;;;;;;18.40;99.90;;;;;;8324536;28;19979;-71
2023/07/17 20:32:05;;;;;;;;;;;18.30;99.90;;;;;;8329940;28;19925;-72
2023/07/17 20:36:07;;;;;;;;;;;18.30;99.90;;;;;;8326730;28;20368;-71
2023/07/17 20:40:11;;;;;;;;;;;18.20;99.90;;;;;;8342956;28;20364;-71
2023/07/17 20:44:13;;;;;;;;;;;18.10;99.90;;;;;;8331444;28;19932;-71
2023/07/17 20:48:15;;;;;;;;;;;18.00;99.90;;;;;;8327976;28;19933;-72
2023/07/17 20:52:19;;;;;;;;;;;17.90;99.90;;;;;;8329710;28;19924;-71
2023/07/17 20:56:21;;;;;;;;;;;17.80;99.90;;;;;;8328073;28;20372;-71
2023/07/17 21:00:22;;;;;;;;;;;17.70;99.90;;;;;;8328339;28;20368;-71
2023/07/17 21:04:24;;;;;;;;;;;17.70;99.90;;;;;;8370028;28;19925;-71
2023/07/17 21:08:26;;;;;;;;;;;17.60;99.90;;;;;;8367199;28;19936;-71
2023/07/17 21:12:27;;;;;;;;;;;17.50;99.90;;;;;;8390871;28;20375;-71
2023/07/17 21:16:29;;;;;;;;;;;17.50;99.90;;;;;;8382650;28;19929;-71
2023/07/17 21:20:31;;;;;;;;;;;17.50;99.90;;;;;;8365698;28;20273;-71
2023/07/17 21:24:32;;;;;;;;;;;17.40;99.90;;;;;;8358913;28;20375;-71
2023/07/17 21:28:34;;;;;;;;;;;17.40;99.90;;;;;;8380799;28;20425;-71
2023/07/17 21:32:36;;;;;;;;;;;17.30;99.90;;;;;;8339238;28;19925;-72
2023/07/17 21:36:38;;;;;;;;;;;17.20;99.90;;;;;;8351827;28;19933;-71
2023/07/17 21:40:39;;;;;;;;;;;17.20;99.90;;;;;;8373476;28;19928;-71
2023/07/17 21:44:41;;;;;;;;;;;17.10;99.90;;;;;;8371379;28;19970;-71
2023/07/17 21:48:43;;;;;;;;;;;17.00;99.90;;;;;;8379824;28;19933;-71
2023/07/17 21:52:44;;;;;;;;;;;17.00;99.90;;;;;;8348348;28;19925;-71
2023/07/17 21:56:46;;;;;;;;;;;16.90;99.90;;;;;;8369063;28;19931;-72
2023/07/17 22:00:48;;;;;;;;;;;16.90;99.90;;;;;;8388140;28;19924;-71
2023/07/17 22:04:50;;;;;;;;;;;16.80;99.90;;;;;;8391780;28;19932;-71
2023/07/17 22:08:52;;;;;;;;;;;16.80;99.90;;;;;;8386091;28;19925;-71
2023/07/17 22:12:53;;;;;;;;;;;16.70;99.90;;;;;;8386085;28;20040;-71
2023/07/17 22:16:55;;;;;;;;;;;16.70;99.90;;;;;;8393959;28;20029;-71
2023/07/17 22:20:57;;;;;;;;;;;16.60;99.90;;;;;;8397038;28;19990;-71
2023/07/17 22:24:59;;;;;;;;;;;16.50;99.90;;;;;;8346847;28;20460;-71
2023/07/17 22:29:01;;;;;;;;;;;16.50;99.90;;;;;;8372656;28;19924;-71
2023/07/17 22:33:03;;;;;;;;;;;16.50;99.90;;;;;;8382755;28;19925;-72
2023/07/17 22:37:04;;;;;;;;;;;16.50;99.90;;;;;;8379786;28;19978;-71
2023/07/17 22:41:06;;;;;;;;;;;16.50;99.90;;;;;;8386144;28;20279;-71
2023/07/17 22:45:08;;;;;;;;;;;16.50;99.90;;;;;;8388925;28;19933;-71
2023/07/17 22:49:10;;;;;;;;;;;16.40;99.90;;;;;;8387906;28;19925;-72
2023/07/17 22:53:12;;;;;;;;;;;16.40;99.90;;;;;;8389996;28;20290;-71
2023/07/17 22:57:13;;;;;;;;;;;16.40;99.90;;;;;;8381901;28;19932;-71
2023/07/17 23:01:15;;;;;;;;;;;16.30;99.90;;;;;;8392589;28;19924;-71
2023/07/17 23:05:17;;;;;;;;;;;16.30;99.90;;;;;;8367738;28;19925;-71
2023/07/17 23:09:19;;;;;;;;;;;16.30;99.90;;;;;;8374142;28;19931;-71
2023/07/17 23:13:20;;;;;;;;;;;16.30;99.90;;;;;;8375781;28;20002;-71
2023/07/17 23:17:22;;;;;;;;;;;16.30;99.90;;;;;;8380725;28;19932;-71
2023/07/17 23:21:24;;;;;;;;;;;16.20;99.90;;;;;;8393017;28;19929;-71
2023/07/17 23:25:26;;;;;;;;;;;16.20;99.90;;;;;;8356098;28;19932;-71
2023/07/17 23:29:27;;;;;;;;;;;16.20;99.90;;;;;;8379330;28;20454;-71
2023/07/17 23:33:29;;;;;;;;;;;16.20;99.90;;;;;;8395283;28;19924;-71
2023/07/17 23:37:32;;;;;;;;;;;16.20;99.90;;;;;;8371172;28;19924;-71
2023/07/17 23:56:44;;;;;;;;;;;16.00;99.90;;;;;;8375446;28;19993;-71
